createdAt,value
2017-08-11T00:01:19.836Z,8.47
2017-08-11T00:03:45.967Z,8.00
2017-08-11T00:06:12.100Z,7.40
2017-08-11T00:08:38.284Z,8.67
2017-08-11T00:11:04.409Z,8.80
2017-08-11T00:13:30.535Z,8.80
2017-08-11T00:15:56.699Z,9.03
2017-08-11T00:18:22.846Z,9.50
2017-08-11T00:20:48.966Z,9.00
2017-08-11T00:23:15.131Z,8.93
2017-08-11T00:25:41.267Z,8.77
2017-08-11T00:28:07.422Z,9.30
2017-08-11T00:30:33.566Z,10.30
2017-08-11T00:32:59.701Z,10.60
2017-08-11T00:35:25.862Z,9.90
2017-08-11T00:37:51.979Z,10.70
2017-08-11T00:40:18.138Z,10.97
2017-08-11T00:42:44.266Z,12.07
2017-08-11T00:45:10.394Z,11.97
2017-08-11T00:47:36.513Z,12.43
2017-08-11T00:50:02.647Z,11.03
2017-08-11T00:52:28.755Z,10.47
2017-08-11T00:54:54.906Z,9.77
2017-08-11T00:57:21.011Z,10.03
2017-08-11T00:59:47.147Z,11.00
2017-08-11T01:02:13.289Z,9.77
2017-08-11T01:04:39.436Z,10.27
2017-08-11T01:07:05.603Z,12.20
2017-08-11T01:09:31.746Z,11.97
2017-08-11T01:11:57.936Z,11.47
2017-08-11T01:14:24.109Z,13.03
2017-08-11T01:16:50.256Z,10.90
2017-08-11T01:19:16.423Z,11.83
2017-08-11T01:21:42.591Z,11.27
2017-08-11T01:24:08.755Z,10.93
2017-08-11T01:26:34.907Z,10.27
2017-08-11T01:29:01.066Z,11.30
2017-08-11T01:31:27.255Z,11.17
2017-08-11T01:33:53.428Z,12.30
2017-08-11T01:36:19.614Z,11.87
2017-08-11T01:38:45.767Z,13.30
2017-08-11T01:41:11.948Z,12.17
2017-08-11T01:43:38.110Z,11.87
2017-08-11T01:46:04.291Z,12.03
2017-08-11T01:48:30.487Z,12.37
2017-08-11T01:50:56.655Z,11.77
2017-08-11T01:53:22.834Z,11.23
2017-08-11T01:55:49.009Z,10.40
2017-08-11T01:58:15.171Z,10.20
2017-08-11T02:00:41.349Z,11.63
2017-08-11T02:03:07.522Z,11.07
2017-08-11T02:05:33.712Z,11.20
2017-08-11T02:07:59.925Z,11.27
2017-08-11T02:10:26.127Z,10.00
2017-08-11T02:12:52.322Z,9.90
2017-08-11T02:15:18.494Z,11.30
2017-08-11T02:17:44.680Z,11.50
2017-08-11T02:20:10.835Z,10.80
2017-08-11T02:22:37.011Z,11.97
2017-08-11T02:25:03.180Z,12.20
2017-08-11T02:27:29.318Z,12.30
2017-08-11T02:29:55.468Z,13.10
2017-08-11T02:32:21.606Z,13.13
2017-08-11T02:34:47.758Z,13.77
2017-08-11T02:37:13.916Z,13.80
2017-08-11T02:39:40.070Z,14.20
2017-08-11T02:42:06.198Z,15.03
2017-08-11T02:44:32.351Z,15.67
2017-08-11T02:46:58.503Z,15.50
2017-08-11T02:49:24.655Z,13.30
2017-08-11T02:51:50.786Z,14.90
2017-08-11T02:54:16.948Z,14.97
2017-08-11T02:56:43.074Z,14.90
2017-08-11T02:59:09.203Z,16.07
2017-08-11T03:01:35.356Z,17.40
2017-08-11T03:04:01.520Z,16.60
2017-08-11T03:06:27.713Z,16.30
2017-08-11T03:08:53.907Z,17.30
2017-08-11T03:11:20.058Z,16.87
2017-08-11T03:13:46.186Z,17.10
2017-08-11T03:16:12.358Z,18.07
2017-08-11T03:18:38.518Z,19.50
2017-08-11T03:21:04.680Z,19.40
2017-08-11T03:23:30.814Z,18.47
2017-08-11T03:25:56.965Z,16.90
2017-08-11T03:28:23.090Z,14.40
2017-08-11T03:30:49.254Z,14.57
2017-08-11T03:33:15.380Z,15.10
2017-08-11T03:35:41.506Z,18.23
2017-08-11T03:38:07.651Z,18.03
2017-08-11T03:40:33.786Z,20.50
2017-08-11T03:42:59.934Z,21.93
2017-08-11T03:45:32.947Z,20.60
2017-08-11T03:47:59.103Z,21.10
2017-08-11T03:50:25.248Z,20.53
2017-08-11T03:52:51.402Z,21.80
2017-08-11T03:55:17.543Z,21.90
2017-08-11T03:57:43.682Z,21.37
2017-08-11T04:00:09.818Z,21.33
2017-08-11T04:02:35.979Z,22.60
2017-08-11T04:05:02.132Z,20.33
2017-08-11T04:07:28.307Z,24.23
2017-08-11T04:09:54.438Z,22.43
2017-08-11T04:12:20.566Z,21.93
2017-08-11T04:14:46.718Z,21.23
2017-08-11T04:17:12.834Z,23.30
2017-08-11T04:19:38.979Z,22.27
2017-08-11T04:22:05.101Z,22.10
2017-08-11T04:24:31.300Z,22.43
2017-08-11T04:26:57.418Z,21.73
2017-08-11T04:29:23.541Z,22.70
2017-08-11T04:31:49.650Z,24.00
2017-08-11T04:34:15.774Z,23.20
2017-08-11T04:36:41.890Z,23.40
2017-08-11T04:39:08.067Z,23.30
2017-08-11T04:41:34.207Z,24.73
2017-08-11T04:44:00.342Z,24.70
2017-08-11T04:46:26.447Z,25.07
2017-08-11T04:48:52.567Z,24.47
2017-08-11T04:51:18.706Z,25.53
2017-08-11T04:53:44.843Z,27.60
2017-08-11T04:56:11.020Z,25.97
2017-08-11T04:58:37.135Z,26.10
2017-08-11T05:01:03.277Z,27.10
2017-08-11T05:03:29.395Z,26.97
2017-08-11T05:05:55.534Z,25.03
2017-08-11T05:08:21.690Z,27.50
2017-08-11T05:10:47.830Z,26.27
2017-08-11T05:13:13.966Z,26.77
2017-08-11T05:15:40.203Z,26.53
2017-08-11T05:18:06.355Z,25.10
2017-08-11T05:20:32.482Z,27.03
2017-08-11T05:23:05.496Z,28.27
2017-08-11T05:25:34.597Z,29.20
2017-08-11T05:28:00.866Z,27.23
2017-08-11T05:30:27.525Z,29.10
2017-08-11T05:32:53.824Z,27.20
2017-08-11T05:35:20.389Z,29.00
2017-08-11T05:37:46.643Z,27.77
2017-08-11T05:40:12.833Z,27.80
2017-08-11T05:42:39.026Z,27.20
2017-08-11T05:45:05.192Z,25.30
2017-08-11T05:47:31.388Z,27.80
2017-08-11T05:49:57.535Z,27.47
2017-08-11T05:52:23.721Z,26.90
2017-08-11T05:54:49.937Z,27.07
2017-08-11T05:57:16.087Z,28.00
2017-08-11T05:59:42.332Z,28.47
2017-08-11T06:02:08.545Z,27.50
2017-08-11T06:04:34.763Z,28.70
2017-08-11T06:07:00.903Z,31.47
2017-08-11T06:09:27.072Z,29.70
2017-08-11T06:11:53.233Z,34.27
2017-08-11T06:14:19.379Z,34.23
2017-08-11T06:16:45.528Z,34.60
2017-08-11T06:19:11.743Z,36.63
2017-08-11T06:21:37.894Z,36.20
2017-08-11T06:24:04.056Z,39.77
2017-08-11T06:26:30.243Z,38.63
2017-08-11T06:28:56.427Z,38.70
2017-08-11T06:31:22.599Z,40.87
2017-08-11T06:33:48.740Z,39.43
2017-08-11T06:36:14.926Z,38.70
2017-08-11T06:38:41.068Z,40.37
2017-08-11T06:41:07.221Z,39.77
2017-08-11T06:43:33.371Z,37.50
2017-08-11T06:46:00.112Z,38.27
2017-08-11T06:48:26.295Z,39.17
2017-08-11T06:50:52.948Z,40.30
2017-08-11T06:53:19.118Z,38.70
2017-08-11T06:55:45.268Z,37.03
2017-08-11T06:58:11.427Z,41.17
2017-08-11T07:00:37.552Z,41.37
2017-08-11T07:03:03.737Z,40.93
2017-08-11T07:05:29.907Z,42.93
2017-08-11T07:07:56.064Z,42.50
2017-08-11T07:10:22.223Z,40.77
2017-08-11T07:12:48.388Z,39.80
2017-08-11T07:15:14.634Z,38.10
2017-08-11T07:17:40.855Z,39.47
2017-08-11T07:20:07.081Z,38.57
2017-08-11T07:22:33.381Z,39.60
2017-08-11T07:24:59.584Z,38.00
2017-08-11T07:27:25.730Z,38.30
2017-08-11T07:29:51.950Z,36.90
2017-08-11T07:32:18.119Z,36.50
2017-08-11T07:34:44.888Z,34.17
2017-08-11T07:37:11.092Z,38.13
2017-08-11T07:39:37.280Z,35.47
2017-08-11T07:42:03.482Z,37.17
2017-08-11T07:44:29.666Z,35.33
2017-08-11T07:46:55.787Z,35.40
2017-08-11T07:49:21.971Z,36.40
2017-08-11T07:51:48.140Z,34.40
2017-08-11T07:54:14.307Z,32.40
2017-08-11T07:56:40.431Z,35.60
2017-08-11T07:59:06.591Z,36.87
2017-08-11T08:01:32.776Z,33.77
2017-08-11T08:03:58.921Z,33.70
2017-08-11T08:06:25.090Z,33.33
2017-08-11T08:08:51.269Z,33.07
2017-08-11T08:11:17.460Z,31.70
2017-08-11T08:13:44.713Z,33.30
2017-08-11T08:16:10.899Z,33.33
2017-08-11T08:18:37.056Z,32.60
2017-08-11T08:21:03.251Z,29.80
2017-08-11T08:23:29.462Z,31.10
2017-08-11T08:25:55.622Z,32.70
2017-08-11T08:28:21.903Z,31.00
2017-08-11T08:30:48.131Z,31.70
2017-08-11T08:33:14.284Z,30.43
2017-08-11T08:35:40.439Z,31.90
2017-08-11T08:38:06.627Z,28.80
2017-08-11T08:40:32.770Z,31.10
2017-08-11T08:42:58.955Z,30.70
2017-08-11T08:45:25.095Z,30.33
2017-08-11T08:47:51.368Z,29.70
2017-08-11T08:50:17.523Z,28.90
2017-08-11T08:52:43.736Z,26.53
2017-08-11T08:55:09.960Z,28.87
2017-08-11T08:57:36.208Z,27.17
2017-08-11T09:00:02.403Z,27.93
2017-08-11T09:02:28.551Z,28.20
2017-08-11T09:04:54.732Z,26.80
2017-08-11T09:07:20.891Z,26.10
2017-08-11T09:09:47.072Z,24.93
2017-08-11T09:12:13.201Z,24.40
2017-08-11T09:14:39.388Z,22.50
2017-08-11T09:17:05.524Z,20.93
2017-08-11T09:19:31.671Z,17.07
2017-08-11T09:21:57.826Z,16.77
2017-08-11T09:24:36.116Z,14.93
2017-08-11T09:27:14.385Z,16.17
2017-08-11T09:30:04.540Z,15.87
2017-08-11T09:32:42.798Z,16.20
2017-08-11T09:35:30.858Z,14.17
2017-08-11T09:37:57.000Z,14.57
2017-08-11T09:40:23.159Z,13.90
2017-08-11T09:42:49.286Z,10.43
2017-08-11T09:45:15.439Z,11.03
2017-08-11T09:47:41.562Z,10.57
2017-08-11T09:50:07.709Z,7.70
2017-08-11T09:52:33.839Z,8.50
2017-08-11T09:54:59.997Z,8.60
2017-08-11T09:57:26.157Z,8.17
2017-08-11T09:59:52.304Z,7.33
2017-08-11T10:02:18.434Z,8.07
2017-08-11T10:04:44.645Z,6.20
2017-08-11T10:07:10.795Z,5.90
2017-08-11T10:09:37.138Z,5.50
2017-08-11T10:12:03.344Z,5.00
2017-08-11T10:14:29.487Z,5.20
2017-08-11T10:16:55.659Z,4.13
2017-08-11T10:19:21.847Z,5.30
2017-08-11T10:21:48.023Z,5.30
2017-08-11T10:24:14.179Z,5.50
2017-08-11T10:26:40.400Z,5.07
2017-08-11T10:29:06.526Z,4.80
2017-08-11T10:31:32.715Z,3.87
2017-08-11T10:33:58.907Z,3.50
2017-08-11T10:36:25.150Z,3.77
2017-08-11T10:38:51.322Z,3.20
2017-08-11T10:41:17.483Z,3.40
2017-08-11T10:43:43.639Z,3.10
2017-08-11T10:46:09.771Z,2.70
2017-08-11T10:48:35.947Z,2.50
2017-08-11T10:51:02.107Z,2.00
2017-08-11T10:53:28.230Z,2.20
2017-08-11T10:55:54.659Z,2.60
2017-08-11T10:58:20.812Z,2.80
2017-08-11T11:00:46.971Z,2.60
2017-08-11T11:03:13.143Z,2.50
2017-08-11T11:05:39.371Z,2.33
2017-08-11T11:08:05.615Z,2.10
2017-08-11T11:10:31.791Z,2.13
2017-08-11T11:12:57.974Z,2.40
2017-08-11T11:15:24.168Z,2.50
2017-08-11T11:17:50.322Z,2.50
2017-08-11T11:20:16.572Z,2.50
2017-08-11T11:22:42.984Z,2.50
2017-08-11T11:25:09.124Z,1.93
2017-08-11T11:27:35.419Z,2.20
2017-08-11T11:30:01.591Z,2.03
2017-08-11T11:32:28.167Z,2.60
2017-08-11T11:34:54.319Z,2.27
2017-08-11T11:37:20.476Z,1.80
2017-08-11T11:39:46.781Z,1.70
2017-08-11T11:42:14.126Z,2.00
2017-08-11T11:44:40.460Z,1.70
2017-08-11T11:47:06.673Z,1.60
2017-08-11T11:49:32.847Z,1.40
2017-08-11T11:51:59.012Z,1.73
2017-08-11T11:54:25.156Z,1.90
2017-08-11T11:56:51.330Z,1.17
2017-08-11T11:59:17.492Z,1.00
2017-08-11T12:01:43.652Z,1.40
2017-08-11T12:04:09.861Z,1.30
2017-08-11T12:06:36.071Z,1.10
2017-08-11T12:09:02.387Z,0.90
2017-08-11T12:11:28.634Z,1.17
2017-08-11T12:13:54.898Z,1.20
2017-08-11T12:16:21.092Z,1.20
2017-08-11T12:18:47.312Z,1.47
2017-08-11T12:21:13.555Z,1.40
2017-08-11T12:23:39.705Z,1.60
2017-08-11T12:26:05.912Z,2.20
2017-08-11T12:28:32.168Z,1.40
2017-08-11T12:30:58.381Z,1.63
2017-08-11T12:33:24.685Z,2.03
2017-08-11T12:35:50.895Z,1.83
2017-08-11T12:38:17.169Z,1.73
2017-08-11T12:40:43.479Z,1.90
2017-08-11T12:43:09.751Z,2.00
2017-08-11T12:45:36.085Z,2.33
2017-08-11T12:48:02.299Z,1.97
2017-08-11T12:50:28.479Z,1.93
2017-08-11T12:52:54.651Z,2.50
2017-08-11T12:55:21.900Z,2.20
2017-08-11T12:57:48.136Z,3.10
2017-08-11T13:00:14.367Z,2.77
2017-08-11T13:02:40.544Z,3.40
2017-08-11T13:05:06.699Z,2.73
2017-08-11T13:07:32.955Z,7.53
2017-08-11T13:09:59.115Z,3.37
2017-08-11T13:12:25.252Z,4.30
2017-08-11T13:14:51.432Z,10.10
2017-08-11T13:17:17.864Z,51.87
2017-08-11T13:19:44.052Z,2.80
2017-08-11T13:22:10.245Z,2.50
2017-08-11T13:24:36.419Z,2.50
2017-08-11T13:27:02.636Z,2.67
2017-08-11T13:29:28.855Z,3.93
2017-08-11T13:32:04.735Z,6.10
2017-08-11T13:34:30.978Z,5.20
2017-08-11T13:36:57.114Z,3.17
2017-08-11T13:39:23.295Z,2.57
2017-08-11T13:41:49.599Z,6.60
2017-08-11T13:44:15.799Z,3.40
2017-08-11T13:46:42.050Z,6.50
2017-08-11T13:49:08.245Z,3.53
2017-08-11T13:51:34.425Z,9.43
2017-08-11T13:54:00.592Z,2.80
2017-08-11T13:56:26.731Z,2.90
2017-08-11T13:58:54.068Z,3.17
2017-08-11T14:01:20.220Z,11.67
2017-08-11T14:03:46.360Z,3.20
2017-08-11T14:06:12.539Z,3.80
2017-08-11T14:08:38.741Z,3.37
2017-08-11T14:11:04.904Z,4.07
2017-08-11T14:13:31.091Z,4.63
2017-08-11T14:15:57.303Z,4.37
2017-08-11T14:18:23.456Z,4.50
2017-08-11T14:20:49.832Z,4.60
2017-08-11T14:23:22.557Z,4.97
2017-08-11T14:25:48.720Z,4.90
2017-08-11T14:28:15.149Z,4.67
2017-08-11T14:30:53.044Z,5.53
2017-08-11T14:33:19.231Z,5.83
2017-08-11T14:35:45.512Z,4.87
2017-08-11T14:38:11.749Z,5.40
2017-08-11T14:40:37.895Z,5.00
2017-08-11T14:43:04.135Z,5.77
2017-08-11T14:45:30.319Z,5.70
2017-08-11T14:47:56.475Z,7.20
2017-08-11T14:50:22.631Z,4.90
2017-08-11T14:52:48.835Z,4.97
2017-08-11T14:55:15.611Z,4.50
2017-08-11T14:57:41.751Z,5.37
2017-08-11T15:00:07.908Z,4.87
2017-08-11T15:02:34.043Z,4.60
2017-08-11T15:05:00.216Z,6.10
2017-08-11T15:07:26.356Z,4.47
2017-08-11T15:09:52.742Z,4.13
2017-08-11T15:12:19.012Z,5.07
2017-08-11T15:14:45.213Z,5.63
2017-08-11T15:17:11.384Z,5.40
2017-08-11T15:19:37.547Z,5.80
2017-08-11T15:22:03.731Z,5.63
2017-08-11T15:24:29.900Z,6.33
2017-08-11T15:26:56.100Z,6.03
2017-08-11T15:29:22.318Z,6.20
2017-08-11T15:31:51.081Z,7.07
2017-08-11T15:34:17.299Z,5.93
2017-08-11T15:36:43.542Z,5.60
2017-08-11T15:39:09.683Z,6.30
2017-08-11T15:41:35.858Z,5.90
2017-08-11T15:44:02.000Z,6.63
2017-08-11T15:46:28.155Z,6.90
2017-08-11T15:48:54.678Z,7.13
2017-08-11T15:51:20.959Z,10.83
2017-08-11T15:53:47.158Z,7.23
2017-08-11T15:56:13.780Z,7.20
2017-08-11T15:58:40.151Z,7.20
2017-08-11T16:01:06.347Z,6.57
2017-08-11T16:03:32.515Z,6.63
2017-08-11T16:05:58.747Z,6.20
2017-08-11T16:08:24.899Z,7.30
2017-08-11T16:10:51.088Z,7.20
2017-08-11T16:13:17.252Z,6.43
2017-08-11T16:15:43.435Z,17.60
2017-08-11T16:18:09.671Z,7.90
2017-08-11T16:20:35.827Z,6.43
2017-08-11T16:23:01.989Z,7.57
2017-08-11T16:25:28.131Z,5.93
2017-08-11T16:27:54.276Z,7.27
2017-08-11T16:30:20.430Z,8.13
2017-08-11T16:32:46.588Z,8.10
2017-08-11T16:35:12.789Z,7.37
2017-08-11T16:37:38.974Z,7.50
2017-08-11T16:40:05.135Z,8.30
2017-08-11T16:42:31.329Z,8.67
2017-08-11T16:44:57.519Z,10.37
2017-08-11T16:47:23.671Z,8.60
2017-08-11T16:49:50.487Z,9.70
2017-08-11T16:52:16.635Z,10.57
2017-08-11T16:54:42.876Z,9.77
2017-08-11T16:57:09.394Z,10.77
2017-08-11T16:59:35.565Z,10.67
2017-08-11T17:02:01.791Z,10.03
2017-08-11T17:04:28.076Z,12.07
2017-08-11T17:06:54.296Z,12.20
2017-08-11T17:09:20.476Z,12.73
2017-08-11T17:11:46.627Z,11.60
2017-08-11T17:14:12.816Z,11.70
2017-08-11T17:16:39.060Z,11.10
2017-08-11T17:19:05.324Z,12.90
2017-08-11T17:21:31.483Z,13.17
2017-08-11T17:23:57.708Z,11.60
2017-08-11T17:26:23.883Z,12.90
2017-08-11T17:28:50.031Z,12.50
2017-08-11T17:31:16.199Z,13.40
2017-08-11T17:33:42.355Z,14.53
2017-08-11T17:36:08.606Z,12.10
2017-08-11T17:38:34.799Z,14.23
2017-08-11T17:41:13.031Z,13.20
2017-08-11T17:43:39.332Z,12.93
2017-08-11T17:46:05.516Z,12.90
2017-08-11T17:48:31.679Z,13.67
2017-08-11T17:50:57.871Z,13.73
2017-08-11T17:53:26.105Z,12.67
2017-08-11T17:55:52.397Z,12.70
2017-08-11T17:58:18.544Z,12.13
2017-08-11T18:00:44.744Z,12.57
2017-08-11T18:03:13.295Z,14.47
2017-08-11T18:05:39.720Z,14.90
2017-08-11T18:08:05.886Z,13.97
2017-08-11T18:10:32.067Z,16.17
2017-08-11T18:12:58.235Z,15.47
2017-08-11T18:15:24.428Z,17.10
2017-08-11T18:17:50.628Z,18.10
2017-08-11T18:20:16.846Z,14.57
2017-08-11T18:22:43.137Z,15.10
2017-08-11T18:25:09.290Z,16.07
2017-08-11T18:27:35.472Z,14.07
2017-08-11T18:30:01.751Z,15.60
2017-08-11T18:32:27.943Z,17.03
2017-08-11T18:34:58.039Z,17.33
2017-08-11T18:37:24.274Z,15.43
2017-08-11T18:39:50.434Z,17.83
2017-08-11T18:42:16.604Z,16.40
2017-08-11T18:44:42.786Z,18.47
2017-08-11T18:47:08.943Z,17.50
2017-08-11T18:49:35.128Z,17.77
2017-08-11T18:52:01.306Z,18.63
2017-08-11T18:54:27.539Z,18.80
2017-08-11T18:56:53.748Z,18.00
2017-08-11T18:59:19.981Z,19.13
2017-08-11T19:01:46.200Z,17.87
2017-08-11T19:04:12.371Z,18.43
2017-08-11T19:06:38.499Z,17.20
2017-08-11T19:09:04.686Z,17.97
2017-08-11T19:11:31.851Z,18.57
2017-08-11T19:13:58.478Z,17.80
2017-08-11T19:16:24.803Z,18.70
2017-08-11T19:18:56.819Z,16.97
2017-08-11T19:21:23.137Z,18.30
2017-08-11T19:23:49.287Z,18.97
2017-08-11T19:26:15.461Z,20.77
2017-08-11T19:28:41.695Z,18.97
2017-08-11T19:31:07.952Z,21.57
2017-08-11T19:33:34.103Z,20.27
2017-08-11T19:36:00.283Z,19.70
2017-08-11T19:38:26.446Z,20.33
2017-08-11T19:40:52.632Z,19.77
2017-08-11T19:43:18.800Z,21.23
2017-08-11T19:45:44.967Z,22.97
2017-08-11T19:48:11.131Z,21.57
2017-08-11T19:50:37.509Z,22.90
2017-08-11T19:53:03.663Z,22.30
2017-08-11T19:55:29.840Z,23.87
2017-08-11T19:57:56.107Z,24.00
2017-08-11T20:00:22.332Z,24.27
2017-08-11T20:02:48.770Z,24.03
2017-08-11T20:05:15.052Z,23.97
2017-08-11T20:07:41.288Z,25.93
2017-08-11T20:10:07.463Z,28.10
2017-08-11T20:12:33.627Z,26.77
2017-08-11T20:14:59.879Z,28.03
2017-08-11T20:17:26.237Z,30.10
2017-08-11T20:19:52.660Z,29.97
2017-08-11T20:22:18.927Z,30.40
2017-08-11T20:24:45.283Z,30.17
2017-08-11T20:27:11.464Z,30.83
2017-08-11T20:29:37.649Z,28.90
2017-08-11T20:32:03.795Z,31.47
2017-08-11T20:34:38.513Z,31.70
2017-08-11T20:37:04.677Z,30.47
2017-08-11T20:39:30.839Z,30.30
2017-08-11T20:41:57.363Z,29.87
2017-08-11T20:47:08.248Z,30.73
2017-08-11T20:49:34.525Z,32.30
2017-08-11T20:52:00.660Z,31.17
2017-08-11T20:54:26.837Z,32.37
2017-08-11T20:56:53.911Z,35.50
2017-08-11T20:59:20.219Z,31.23
2017-08-11T21:01:46.540Z,32.03
2017-08-11T21:04:12.810Z,34.40
2017-08-11T21:06:39.194Z,35.83
2017-08-11T21:09:05.393Z,36.20
2017-08-11T21:11:31.612Z,33.70
2017-08-11T21:13:57.828Z,38.70
2017-08-11T21:16:24.133Z,37.23
2017-08-11T21:18:50.279Z,39.07
2017-08-11T21:21:16.564Z,38.60
2017-08-11T21:23:42.831Z,39.97
2017-08-11T21:26:09.015Z,37.50
2017-08-11T21:28:35.169Z,38.80
2017-08-11T21:31:01.411Z,42.53
2017-08-11T21:33:27.766Z,38.60
2017-08-11T21:35:53.975Z,42.87
2017-08-11T21:38:20.155Z,44.20
2017-08-11T21:40:46.338Z,42.70
2017-08-11T21:43:12.572Z,43.90
2017-08-11T21:45:38.804Z,44.77
2017-08-11T21:48:05.208Z,42.97
2017-08-11T21:50:31.554Z,42.87
2017-08-11T21:52:57.772Z,43.87
2017-08-11T21:55:23.927Z,44.27
2017-08-11T21:57:50.318Z,44.87
2017-08-11T22:00:16.484Z,44.53
2017-08-11T22:02:42.706Z,45.67
2017-08-11T22:05:08.983Z,41.73
2017-08-11T22:07:35.176Z,43.23
2017-08-11T22:10:01.342Z,43.70
2017-08-11T22:12:27.522Z,40.77
2017-08-11T22:14:53.736Z,41.07
2017-08-11T22:17:19.911Z,40.93
2017-08-11T22:19:46.095Z,40.00
2017-08-11T22:22:12.295Z,40.23
2017-08-11T22:24:38.448Z,40.87
2017-08-11T22:27:04.639Z,39.70
2017-08-11T22:29:30.891Z,41.30
2017-08-11T22:31:57.075Z,40.00
2017-08-11T22:34:25.570Z,39.93
2017-08-11T22:36:51.775Z,38.03
2017-08-11T22:39:17.956Z,39.50
2017-08-11T22:41:44.152Z,43.47
2017-08-11T22:44:10.416Z,38.17
2017-08-11T22:46:36.618Z,38.80
2017-08-11T22:49:02.803Z,35.23
2017-08-11T22:51:29.155Z,37.83
2017-08-11T22:53:55.316Z,41.63
2017-08-11T22:56:21.460Z,37.80
2017-08-11T23:01:41.662Z,38.27
2017-08-11T23:04:11.603Z,40.83
2017-08-11T23:06:37.842Z,37.70
2017-08-11T23:09:04.003Z,37.53
2017-08-11T23:11:30.242Z,41.17
2017-08-11T23:13:56.509Z,40.40
2017-08-11T23:16:22.730Z,39.80
2017-08-11T23:18:48.863Z,41.40
2017-08-11T23:21:15.016Z,39.47
2017-08-11T23:23:41.274Z,39.97
2017-08-11T23:26:07.561Z,38.80
2017-08-11T23:28:34.704Z,38.83
2017-08-11T23:31:01.251Z,41.93
2017-08-11T23:33:27.468Z,39.87
2017-08-11T23:35:53.633Z,39.90
2017-08-11T23:38:19.791Z,42.30
2017-08-11T23:40:45.959Z,40.87
2017-08-11T23:43:12.291Z,38.90
2017-08-11T23:45:38.461Z,39.47
2017-08-11T23:48:04.622Z,40.50
2017-08-11T23:50:30.926Z,38.57
2017-08-11T23:52:57.675Z,39.30
2017-08-11T23:55:23.868Z,39.37
2017-08-11T23:57:51.877Z,37.60
